createdAt,value
2017-04-16T00:00:24.283Z,6.6
2017-04-16T00:01:26.650Z,6.6
2017-04-16T00:02:29.758Z,6.6
2017-04-16T00:03:33.000Z,6.6
2017-04-16T00:04:35.431Z,6.6
2017-04-16T00:05:37.834Z,6.6
2017-04-16T00:06:40.208Z,6.5
2017-04-16T00:07:42.592Z,6.5
2017-04-16T00:08:45.010Z,6.6
2017-04-16T00:09:47.438Z,6.6
2017-04-16T00:10:49.821Z,6.6
2017-04-16T00:11:52.198Z,6.4
2017-04-16T00:12:55.023Z,6.4
2017-04-16T00:13:57.464Z,6.4
2017-04-16T00:14:59.905Z,6.3
2017-04-16T00:16:02.359Z,6.4
2017-04-16T00:17:04.729Z,6.3
2017-04-16T00:18:07.150Z,6.3
2017-04-16T00:19:09.604Z,6.4
2017-04-16T00:20:11.999Z,6.4
2017-04-16T00:21:14.354Z,6.5
2017-04-16T00:22:16.770Z,6.4
2017-04-16T00:23:19.197Z,6.4
2017-04-16T00:24:21.592Z,6.2
2017-04-16T00:25:24.302Z,6.3
2017-04-16T00:26:26.772Z,6.2
2017-04-16T00:27:29.243Z,6.4
2017-04-16T00:28:31.631Z,6.4
2017-04-16T00:29:34.108Z,6.4
2017-04-16T00:30:36.611Z,6.4
2017-04-16T00:31:39.049Z,6.3
2017-04-16T00:32:41.507Z,6.3
2017-04-16T00:33:43.947Z,6.4
2017-04-16T00:34:46.378Z,6.3
2017-04-16T00:35:48.858Z,6.4
2017-04-16T00:36:51.260Z,6.4
2017-04-16T00:37:53.698Z,6.5
2017-04-16T00:38:56.102Z,6.6
2017-04-16T00:39:58.507Z,6.6
2017-04-16T00:41:00.967Z,6.6
2017-04-16T00:42:03.899Z,6.7
2017-04-16T00:43:06.294Z,6.7
2017-04-16T00:44:08.736Z,6.6
2017-04-16T00:45:11.156Z,6.6
2017-04-16T00:46:13.611Z,6.6
2017-04-16T00:47:16.056Z,6.7
2017-04-16T00:48:18.427Z,6.7
2017-04-16T00:49:20.871Z,6.8
2017-04-16T00:50:23.252Z,6.7
2017-04-16T00:51:25.691Z,6.7
2017-04-16T00:52:28.143Z,6.7
2017-04-16T00:53:30.558Z,6.7
2017-04-16T00:54:33.036Z,6.6
2017-04-16T00:55:35.446Z,6.6
2017-04-16T00:56:38.172Z,6.6
2017-04-16T00:57:40.610Z,6.5
2017-04-16T00:58:43.031Z,6.4
2017-04-16T00:59:45.483Z,6.4
2017-04-16T01:00:47.906Z,6.5
2017-04-16T01:01:50.329Z,6.4
2017-04-16T01:02:52.759Z,6.4
2017-04-16T01:03:55.436Z,6.4
2017-04-16T01:04:57.931Z,6.4
2017-04-16T01:06:00.362Z,6.3
2017-04-16T01:07:02.773Z,6.3
2017-04-16T01:08:05.183Z,6.2
2017-04-16T01:09:07.583Z,6.2
2017-04-16T01:10:09.949Z,6.3
2017-04-16T01:11:12.339Z,6.3
2017-04-16T01:12:14.754Z,6.4
2017-04-16T01:13:17.162Z,6.3
2017-04-16T01:14:19.567Z,6.4
2017-04-16T01:15:22.000Z,6.4
2017-04-16T01:16:24.818Z,6.4
2017-04-16T01:17:27.596Z,6.5
2017-04-16T01:18:29.998Z,6.5
2017-04-16T01:19:32.381Z,6.5
2017-04-16T01:20:34.777Z,6.6
2017-04-16T01:21:37.159Z,6.6
2017-04-16T01:22:39.586Z,6.6
2017-04-16T01:23:41.955Z,6.6
2017-04-16T01:24:44.384Z,6.6
2017-04-16T01:25:46.805Z,6.6
2017-04-16T01:26:49.825Z,6.5
2017-04-16T01:27:52.289Z,6.6
2017-04-16T01:28:54.742Z,6.5
2017-04-16T01:29:57.181Z,6.5
2017-04-16T01:30:59.580Z,6.4
2017-04-16T01:32:02.000Z,6.4
2017-04-16T01:33:04.401Z,6.2
2017-04-16T01:34:06.814Z,6.3
2017-04-16T01:35:09.229Z,6.3
2017-04-16T01:36:11.595Z,6.2
2017-04-16T01:37:13.961Z,6.2
2017-04-16T01:38:16.398Z,6.2
2017-04-16T01:39:18.783Z,6.3
2017-04-16T01:40:21.194Z,6.3
2017-04-16T01:41:23.584Z,6.4
2017-04-16T01:42:25.979Z,6.4
2017-04-16T01:43:28.388Z,6.5
2017-04-16T01:44:30.887Z,6.6
2017-04-16T01:45:33.258Z,6.6
2017-04-16T01:46:35.659Z,6.6
2017-04-16T01:47:38.033Z,6.6
2017-04-16T01:48:40.489Z,6.5
2017-04-16T01:49:42.950Z,6.6
2017-04-16T01:50:45.328Z,6.6
2017-04-16T01:51:47.701Z,6.7
2017-04-16T01:52:50.114Z,6.7
2017-04-16T01:53:52.500Z,6.7
2017-04-16T01:54:54.928Z,6.7
2017-04-16T01:55:57.368Z,6.6
2017-04-16T01:56:59.805Z,6.6
2017-04-16T01:58:02.972Z,6.7
2017-04-16T01:59:05.382Z,6.6
2017-04-16T02:00:07.764Z,6.6
2017-04-16T02:01:10.168Z,6.7
2017-04-16T02:02:12.565Z,6.6
2017-04-16T02:03:14.935Z,6.6
2017-04-16T02:04:17.317Z,6.6
2017-04-16T02:05:19.760Z,6.7
2017-04-16T02:06:22.166Z,6.6
2017-04-16T02:07:24.536Z,6.6
2017-04-16T02:08:26.940Z,6.6
2017-04-16T02:09:29.353Z,6.6
2017-04-16T02:10:31.756Z,6.6
2017-04-16T02:11:34.149Z,6.5
2017-04-16T02:12:37.195Z,6.5
2017-04-16T02:13:39.577Z,6.5
2017-04-16T02:14:41.993Z,6.6
2017-04-16T02:15:44.392Z,6.5
2017-04-16T02:16:46.785Z,6.6
2017-04-16T02:17:49.152Z,6.6
2017-04-16T02:18:51.560Z,6.7
2017-04-16T02:19:53.928Z,6.7
2017-04-16T02:20:56.332Z,6.6
2017-04-16T02:21:58.748Z,6.5
2017-04-16T02:23:01.147Z,6.5
2017-04-16T02:24:03.530Z,6.5
2017-04-16T02:25:05.932Z,6.6
2017-04-16T02:26:08.357Z,6.5
2017-04-16T02:27:10.701Z,6.5
2017-04-16T02:28:13.074Z,6.6
2017-04-16T02:29:15.448Z,6.6
2017-04-16T02:30:18.129Z,6.5
2017-04-16T02:31:20.512Z,6.5
2017-04-16T02:32:22.905Z,6.4
2017-04-16T02:33:25.281Z,6.4
2017-04-16T02:34:27.702Z,6.4
2017-04-16T02:35:30.110Z,6.4
2017-04-16T02:36:32.460Z,6.3
2017-04-16T02:37:34.841Z,6.3
2017-04-16T02:38:37.277Z,6.2
2017-04-16T02:39:39.678Z,6.2
2017-04-16T02:40:42.089Z,6.3
2017-04-16T02:41:44.425Z,6.2
2017-04-16T02:42:46.769Z,6.3
2017-04-16T02:43:49.189Z,6.2
2017-04-16T02:44:51.568Z,6.2
2017-04-16T02:45:53.976Z,6.2
2017-04-16T02:46:56.328Z,6.2
2017-04-16T02:47:58.679Z,6.1
2017-04-16T02:49:01.074Z,6.1
2017-04-16T02:50:03.528Z,6.2
2017-04-16T02:51:05.926Z,6.2
2017-04-16T02:52:08.374Z,6.2
2017-04-16T02:53:10.736Z,6.2
2017-04-16T02:54:13.084Z,6.2
2017-04-16T02:55:15.506Z,6.2
2017-04-16T02:56:17.900Z,6.2
2017-04-16T02:57:20.294Z,6.1
2017-04-16T02:58:22.720Z,6.1
2017-04-16T02:59:25.101Z,5.9
2017-04-16T03:00:27.544Z,6
2017-04-16T03:01:30.232Z,6.1
2017-04-16T03:02:32.621Z,6
2017-04-16T03:03:34.976Z,6
2017-04-16T03:04:37.357Z,5.9
2017-04-16T03:05:39.741Z,5.9
2017-04-16T03:06:42.140Z,5.8
2017-04-16T03:07:44.528Z,5.8
2017-04-16T03:08:46.921Z,5.9
2017-04-16T03:09:49.352Z,5.9
2017-04-16T03:10:51.759Z,5.8
2017-04-16T03:11:54.145Z,5.8
2017-04-16T03:12:56.540Z,5.8
2017-04-16T03:13:58.917Z,5.7
2017-04-16T03:15:01.585Z,5.7
2017-04-16T03:16:03.925Z,5.8
2017-04-16T03:17:06.359Z,5.7
2017-04-16T03:18:08.715Z,5.8
2017-04-16T03:19:11.066Z,5.7
2017-04-16T03:20:13.429Z,5.7
2017-04-16T03:21:15.818Z,5.6
2017-04-16T03:22:18.230Z,5.8
2017-04-16T03:23:20.650Z,5.8
2017-04-16T03:24:22.997Z,5.8
2017-04-16T03:25:25.410Z,5.9
2017-04-16T03:26:27.763Z,5.9
2017-04-16T03:27:30.190Z,6
2017-04-16T03:28:32.569Z,5.9
2017-04-16T03:29:34.973Z,5.9
2017-04-16T03:30:37.361Z,5.9
2017-04-16T03:31:39.804Z,5.9
2017-04-16T03:32:42.514Z,6
2017-04-16T03:33:44.881Z,6.1
2017-04-16T03:34:47.260Z,6.1
2017-04-16T03:35:49.660Z,6.2
2017-04-16T03:36:52.003Z,6.1
2017-04-16T03:37:54.385Z,6.2
2017-04-16T03:38:56.790Z,6.1
2017-04-16T03:39:59.233Z,6.1
2017-04-16T03:41:01.603Z,6.1
2017-04-16T03:42:04.018Z,6
2017-04-16T03:43:06.817Z,6
2017-04-16T03:44:09.185Z,6
2017-04-16T03:45:11.545Z,5.9
2017-04-16T13:19:34.206Z,19.6
2017-04-16T13:20:37.074Z,17.3
2017-04-16T13:21:39.681Z,16.3
2017-04-16T13:22:42.434Z,15.5
2017-04-16T13:23:45.044Z,15.4
2017-04-16T13:24:47.662Z,15.5
2017-04-16T13:25:50.247Z,16
2017-04-16T13:26:52.866Z,15.3
2017-04-16T13:27:56.064Z,14.7
2017-04-16T13:28:58.653Z,15.3
2017-04-16T13:30:01.197Z,16
2017-04-16T13:31:03.785Z,15.1
2017-04-16T13:32:06.564Z,15
2017-04-16T13:33:10.320Z,15.2
2017-04-16T13:34:13.066Z,15.2
2017-04-16T13:35:16.725Z,15.1
2017-04-16T13:36:19.684Z,15
2017-04-16T13:37:22.319Z,14.6
2017-04-16T13:38:25.774Z,14.6
2017-04-16T13:39:29.037Z,14.7
2017-04-16T13:40:32.390Z,15.1
2017-04-16T13:41:35.182Z,14.6
2017-04-16T13:42:38.491Z,14.8
2017-04-16T13:43:41.690Z,15.1
2017-04-16T13:44:45.251Z,14.7
2017-04-16T13:45:47.882Z,15
2017-04-16T13:46:52.391Z,14.2
2017-04-16T13:47:55.380Z,13.9
2017-04-16T14:20:43.036Z,13.7
2017-04-16T14:21:45.590Z,13.5
2017-04-16T14:22:48.245Z,13.3
2017-04-16T14:23:50.941Z,13.6
2017-04-16T14:24:54.455Z,13.9
2017-04-16T14:25:57.800Z,13.6
2017-04-16T14:27:01.660Z,13.4
2017-04-16T14:28:04.622Z,13.4
2017-04-16T14:29:08.410Z,13
2017-04-16T14:30:11.391Z,13.4
2017-04-16T14:31:14.703Z,13.1
2017-04-16T14:32:19.764Z,13.5
2017-04-16T14:33:23.966Z,13.6
2017-04-16T14:34:27.586Z,13.4
2017-04-16T14:35:31.201Z,13.4
2017-04-16T14:36:34.267Z,13.3
2017-04-16T14:37:37.609Z,13.3
2017-04-16T14:38:41.506Z,13.2
2017-04-16T14:39:45.844Z,13.4
2017-04-16T14:40:50.909Z,13.3
2017-04-16T14:41:58.126Z,13.5
2017-04-16T14:43:02.249Z,13.6
2017-04-16T14:44:06.288Z,13.3
2017-04-16T14:45:09.869Z,13
2017-04-16T14:47:27.466Z,13.5
2017-04-16T14:48:32.930Z,13.8
2017-04-16T14:49:36.876Z,13.3
2017-04-16T14:50:42.298Z,13.4
2017-04-16T14:51:46.733Z,13.2
2017-04-16T14:52:50.193Z,13.3
2017-04-16T14:53:53.043Z,13.1
2017-04-16T14:54:56.332Z,13.4
2017-04-16T14:55:59.260Z,13.3
2017-04-16T14:57:02.006Z,13.1
2017-04-16T14:58:04.681Z,13.2
2017-04-16T14:59:07.268Z,13.2
2017-04-16T15:00:10.024Z,12.9
2017-04-16T15:01:12.740Z,12.9
2017-04-16T15:02:15.325Z,12.8
2017-04-16T15:03:18.868Z,12.9
2017-04-16T15:05:33.195Z,12.2
2017-04-16T15:06:35.792Z,12.4
2017-04-16T15:07:38.452Z,12.3
2017-04-16T15:08:41.204Z,12.4
2017-04-16T15:09:44.882Z,12.4
2017-04-16T15:10:48.393Z,12.6
2017-04-16T15:11:51.827Z,12.9
2017-04-16T15:12:54.661Z,13.2
2017-04-16T15:13:57.521Z,13.2
2017-04-16T15:15:00.709Z,13
2017-04-16T15:16:04.272Z,12.8
2017-04-16T15:17:07.082Z,13.1
2017-04-16T15:18:10.705Z,13.2
2017-04-16T15:19:14.878Z,13.4
2017-04-16T15:20:19.676Z,13.4
2017-04-16T15:21:22.682Z,13.2
2017-04-16T15:22:25.592Z,13.2
2017-04-16T15:23:29.289Z,13.8
2017-04-16T15:24:32.558Z,13.8
2017-04-16T15:25:35.810Z,13.9
2017-04-16T15:26:38.718Z,13.8
2017-04-16T15:27:43.332Z,13.9
2017-04-16T15:28:49.008Z,13.7
2017-04-16T15:29:51.847Z,13.3
2017-04-16T15:30:54.974Z,13.5
2017-04-16T15:31:58.972Z,13.5
2017-04-16T15:33:03.287Z,13.6
2017-04-16T15:34:08.955Z,13.3
2017-04-16T15:35:15.297Z,13.5
2017-04-16T15:36:20.222Z,13
2017-04-16T15:37:23.981Z,13
2017-04-16T15:38:27.308Z,13.1
2017-04-16T15:39:30.690Z,12.8
2017-04-16T15:40:33.587Z,12.6
2017-04-16T15:41:36.415Z,12.7
2017-04-16T15:42:40.242Z,12.6
2017-04-16T15:43:43.134Z,12.6
2017-04-16T15:44:46.390Z,12.5
2017-04-16T15:45:49.644Z,12.7
2017-04-16T15:46:52.431Z,12.6
2017-04-16T15:47:55.179Z,12.6
2017-04-16T15:48:57.770Z,12.3
2017-04-16T15:50:00.696Z,12.3
2017-04-16T15:51:03.935Z,12.2
2017-04-16T15:52:06.799Z,12.4
2017-04-16T15:53:09.680Z,12.2
2017-04-16T15:54:13.758Z,12.1
2017-04-16T15:55:16.772Z,12
2017-04-16T15:56:19.669Z,12.2
2017-04-16T15:57:22.692Z,12.6
2017-04-16T15:58:25.806Z,12.4
2017-04-16T15:59:28.812Z,12.4
2017-04-16T16:00:31.398Z,12.2
2017-04-16T16:01:34.112Z,12
2017-04-16T16:02:37.369Z,11.8
2017-04-16T16:03:40.592Z,12
2017-04-16T16:04:43.594Z,11.1
2017-04-16T16:05:46.158Z,10.3
2017-04-16T16:06:48.888Z,9.2
2017-04-16T16:07:52.651Z,8.8
2017-04-16T16:08:55.617Z,8.6
2017-04-16T16:09:58.192Z,8.5
2017-04-16T16:11:00.926Z,8.5
2017-04-16T16:12:03.578Z,8.4
2017-04-16T16:13:07.239Z,8.3
2017-04-16T16:14:10.497Z,8.2
2017-04-16T16:15:13.794Z,8.1
2017-04-16T16:16:16.437Z,8.1
2017-04-16T16:17:19.142Z,8.1
2017-04-16T16:18:21.810Z,8
2017-04-16T16:19:25.241Z,8
2017-04-16T16:20:27.934Z,8
2017-04-16T16:21:30.591Z,7.8
2017-04-16T16:22:33.287Z,7.8
2017-04-16T16:23:36.737Z,7.8
2017-04-16T16:24:39.345Z,7.8
2017-04-16T16:25:43.484Z,7.9
2017-04-16T16:26:46.337Z,7.7
2017-04-16T16:27:49.347Z,7.8
2017-04-16T16:28:52.060Z,7.9
2017-04-16T16:29:54.738Z,7.9
2017-04-16T16:30:57.459Z,8
2017-04-16T16:32:00.173Z,8.2
2017-04-16T16:33:02.827Z,8.2
2017-04-16T16:34:05.597Z,8.2
2017-04-16T16:35:08.307Z,8.2
2017-04-16T16:36:10.904Z,8.3
2017-04-16T16:37:13.502Z,8.4
2017-04-16T16:38:16.232Z,8.3
2017-04-16T16:39:19.521Z,8.3
2017-04-16T16:40:22.296Z,8.5
2017-04-16T16:41:25.040Z,8.4
2017-04-16T16:42:27.747Z,8.6
2017-04-16T16:43:30.736Z,8.7
2017-04-16T16:44:33.565Z,8.3
2017-04-16T16:45:36.400Z,8.8
2017-04-16T16:46:39.052Z,8.6
2017-04-16T16:47:41.829Z,8.6
2017-04-16T16:48:44.575Z,8.4
2017-04-16T16:49:47.206Z,8.5
2017-04-16T16:50:49.809Z,8.4
2017-04-16T16:51:52.446Z,8.4
2017-04-16T16:52:55.280Z,8.4
2017-04-16T16:53:58.707Z,8.4
2017-04-16T16:55:02.294Z,8.4
2017-04-16T16:56:05.233Z,8.4
2017-04-16T16:57:08.339Z,8.4
2017-04-16T16:58:11.128Z,8.2
2017-04-16T16:59:14.370Z,8.2
2017-04-16T17:00:17.373Z,8.2
2017-04-16T17:01:21.286Z,8.3
2017-04-16T17:02:24.532Z,8.2
2017-04-16T17:03:27.412Z,8.2
2017-04-16T17:04:30.672Z,8.4
2017-04-16T17:05:33.868Z,8.4
2017-04-16T17:06:36.725Z,8.4
2017-04-16T17:08:51.516Z,8.4
2017-04-16T17:09:54.388Z,8.4
2017-04-16T17:10:57.732Z,8.1
2017-04-16T17:12:00.922Z,8.4
2017-04-16T17:13:03.796Z,8.3
2017-04-16T17:14:06.398Z,8.3
2017-04-16T17:15:09.187Z,8.3
2017-04-16T17:16:14.009Z,7.9
2017-04-16T17:17:16.795Z,8.4
2017-04-16T17:18:19.657Z,8.3
2017-04-16T17:19:22.361Z,8.2
2017-04-16T17:20:25.520Z,8.2
2017-04-16T17:21:28.743Z,8.2
2017-04-16T17:22:31.598Z,8.1
2017-04-16T17:23:36.076Z,8.1
2017-04-16T17:24:39.049Z,7.7
2017-04-16T17:25:41.888Z,8.1
2017-04-16T17:26:44.817Z,8.1
2017-04-16T17:27:47.547Z,7.9
2017-04-16T17:28:50.421Z,7.9
2017-04-16T17:29:53.381Z,7.8
2017-04-16T17:30:58.023Z,7.8
2017-04-16T17:32:02.284Z,7.7
2017-04-16T17:33:05.409Z,7.7
2017-04-16T17:34:08.385Z,7.7
2017-04-16T17:35:11.329Z,7.6
2017-04-16T17:36:13.971Z,7.6
2017-04-16T17:37:16.612Z,7.5
2017-04-16T17:38:20.047Z,7.5
2017-04-16T17:39:23.852Z,7.5
2017-04-16T17:40:26.955Z,7.5
2017-04-16T17:41:29.898Z,7.5
2017-04-16T17:42:33.189Z,7.4
2017-04-16T17:43:36.161Z,7.3
2017-04-16T17:44:40.415Z,7.2
2017-04-16T17:45:44.190Z,6.9
2017-04-16T17:46:47.233Z,7.3
2017-04-16T17:47:50.218Z,7.2
2017-04-16T17:48:53.170Z,7.1
2017-04-16T17:49:56.898Z,6.4
2017-04-16T17:51:00.432Z,7.1
2017-04-16T17:52:03.849Z,7.1
2017-04-16T17:53:06.488Z,7.1
2017-04-16T17:54:09.235Z,7.1
2017-04-16T17:55:12.663Z,7
2017-04-16T17:56:15.334Z,7
2017-04-16T17:57:19.028Z,7
2017-04-16T17:58:21.849Z,7
2017-04-16T17:59:24.485Z,7.1
2017-04-16T18:00:27.154Z,7.1
2017-04-16T18:01:29.862Z,7.2
2017-04-16T18:02:32.590Z,7.2
2017-04-16T18:03:35.992Z,7.2
2017-04-16T18:04:39.575Z,7.2
2017-04-16T18:05:43.432Z,7.2
2017-04-16T18:06:46.098Z,7.3
2017-04-16T18:07:49.352Z,7.3
2017-04-16T18:08:52.029Z,7.3
2017-04-16T18:09:54.672Z,7.2
2017-04-16T18:10:59.077Z,7.3
2017-04-16T18:12:01.700Z,7.3
2017-04-16T18:13:05.082Z,7.3
2017-04-16T18:14:08.469Z,7.2
2017-04-16T18:15:11.830Z,7.2
2017-04-16T18:16:14.683Z,7.2
2017-04-16T18:17:17.451Z,7.2
2017-04-16T18:18:20.161Z,7.2
2017-04-16T18:19:23.565Z,7.2
2017-04-16T18:20:27.325Z,7.2
2017-04-16T18:21:30.268Z,7.2
2017-04-16T18:22:33.521Z,7.2
2017-04-16T18:23:37.538Z,7.1
2017-04-16T18:24:42.612Z,7.2
2017-04-16T18:25:45.951Z,7.2
2017-04-16T18:26:49.284Z,7.3
2017-04-16T18:27:53.030Z,7.3
2017-04-16T18:28:56.172Z,7.3
2017-04-16T18:30:00.932Z,7.3
2017-04-16T18:31:05.691Z,7.3
2017-04-16T18:32:09.974Z,7.2
2017-04-16T18:33:12.605Z,7.3
2017-04-16T18:34:15.310Z,6.9
2017-04-16T18:35:18.559Z,7.3
2017-04-16T18:36:21.187Z,7.3
2017-04-16T18:37:23.818Z,7.2
2017-04-16T18:38:26.415Z,7.1
2017-04-16T18:39:29.074Z,7.1
2017-04-16T18:40:31.628Z,7.1
2017-04-16T18:41:34.325Z,7.1
2017-04-16T18:42:37.030Z,7.1
2017-04-16T18:43:40.041Z,7.1
2017-04-16T18:44:42.854Z,7.1
2017-04-16T18:45:45.620Z,7.1
2017-04-16T18:46:48.294Z,7.1
2017-04-16T18:47:51.427Z,7
2017-04-16T18:48:54.021Z,7
2017-04-16T18:49:56.708Z,7
2017-04-16T18:50:59.291Z,7.1
2017-04-16T18:52:02.556Z,7.1
2017-04-16T18:53:05.188Z,7.1
2017-04-16T18:54:07.707Z,7.1
2017-04-16T18:55:11.256Z,7.1
2017-04-16T18:56:14.504Z,7.1
2017-04-16T18:57:17.271Z,7
2017-04-16T18:58:20.097Z,6.9
2017-04-16T18:59:23.398Z,6.8
2017-04-16T19:00:26.549Z,6.5
2017-04-16T19:01:29.472Z,7
2017-04-16T19:02:32.238Z,7
2017-04-16T19:03:34.985Z,7
2017-04-16T19:04:38.169Z,7.1
2017-04-16T19:05:41.326Z,7
2017-04-16T19:06:45.294Z,6.9
2017-04-16T19:07:48.709Z,6.9
2017-04-16T19:08:52.391Z,6.9
2017-04-16T19:09:56.179Z,6.9
2017-04-16T19:11:00.158Z,7
2017-04-16T19:12:06.755Z,6.9
2017-04-16T19:13:09.457Z,6.4
2017-04-16T19:14:12.100Z,6.8
2017-04-16T19:15:16.066Z,6.9
2017-04-16T19:16:18.795Z,7
2017-04-16T19:17:22.204Z,7
2017-04-16T19:18:24.922Z,7
2017-04-16T19:19:27.650Z,6.9
2017-04-16T19:20:30.201Z,6.9
2017-04-16T19:21:32.936Z,7
2017-04-16T19:22:35.726Z,6.8
2017-04-16T19:23:38.644Z,6.8
2017-04-16T19:24:41.238Z,6.8
2017-04-16T19:25:43.953Z,7
2017-04-16T19:26:47.376Z,7
2017-04-16T19:27:50.022Z,6.8
2017-04-16T19:28:52.724Z,6.9
2017-04-16T19:29:56.996Z,6.8
2017-04-16T19:31:00.142Z,6.8
2017-04-16T19:32:02.891Z,6.7
2017-04-16T19:33:06.028Z,6.8
2017-04-16T19:34:08.688Z,6.8
2017-04-16T19:35:12.443Z,6.7
2017-04-16T19:36:15.091Z,6.7
2017-04-16T19:37:18.951Z,6.9
2017-04-16T19:38:23.980Z,7.1
2017-04-16T19:39:27.142Z,7.2
2017-04-16T19:40:31.457Z,7.2
2017-04-16T19:41:34.171Z,6.9
2017-04-16T19:42:37.165Z,7.1
2017-04-16T19:43:40.980Z,7
2017-04-16T19:44:44.181Z,6.9
2017-04-16T19:45:47.012Z,7.1
2017-04-16T19:46:50.357Z,7.3
2017-04-16T19:47:53.831Z,7.4
2017-04-16T19:48:58.688Z,7.1
2017-04-16T19:50:02.158Z,7.2
2017-04-16T19:51:04.816Z,7.1
2017-04-16T19:52:09.698Z,7.3
2017-04-16T19:53:13.274Z,7.4
2017-04-16T19:54:16.936Z,7.5
2017-04-16T19:55:20.727Z,7.4
2017-04-16T19:56:24.122Z,7.6
2017-04-16T19:57:26.702Z,7.5
2017-04-16T19:58:30.308Z,7.5
2017-04-16T19:59:34.813Z,7.6
2017-04-16T20:00:40.869Z,6.7
2017-04-16T20:01:45.100Z,7.3
2017-04-16T20:02:51.349Z,7
2017-04-16T20:03:58.054Z,6.9
2017-04-16T20:05:04.255Z,6.9
2017-04-16T20:06:10.690Z,6.9
2017-04-16T20:07:15.048Z,6.7
2017-04-16T20:08:20.737Z,6.8
2017-04-16T20:09:25.896Z,6.8
2017-04-16T20:10:32.167Z,6.8
2017-04-16T20:11:36.153Z,6.8
2017-04-16T20:12:39.598Z,6.7
2017-04-16T20:13:43.650Z,6.7
2017-04-16T20:14:48.220Z,6.6
2017-04-16T20:15:53.036Z,6.8
2017-04-16T20:16:58.349Z,6.7
2017-04-16T20:18:02.495Z,6.6
2017-04-16T20:19:06.406Z,6.6
2017-04-16T20:20:12.098Z,6.5
2017-04-16T20:21:18.673Z,6.2
2017-04-16T20:22:23.832Z,6.5
2017-04-16T20:23:28.805Z,6.5
2017-04-16T20:24:33.554Z,6.5
2017-04-16T20:25:39.201Z,6.6
2017-04-16T20:26:45.469Z,6.5
2017-04-16T20:27:52.015Z,6.5
2017-04-16T20:28:58.738Z,6.4
2017-04-16T20:30:03.040Z,6.4
2017-04-16T20:31:05.761Z,6.2
2017-04-16T20:32:09.173Z,6.6
2017-04-16T20:33:13.692Z,6.4
2017-04-16T20:34:17.274Z,6.5
2017-04-16T20:35:22.334Z,6.4
2017-04-16T20:36:27.238Z,6.4
2017-04-16T20:37:31.081Z,6.3
2017-04-16T20:38:35.438Z,6.4
2017-04-16T20:39:40.846Z,6.4
2017-04-16T20:40:47.541Z,6.4
2017-04-16T20:41:53.108Z,6.4
2017-04-16T20:42:58.088Z,6.4
2017-04-16T20:44:02.800Z,6.3
2017-04-16T20:45:07.835Z,6.3
2017-04-16T20:46:14.165Z,6.3
2017-04-16T20:47:19.412Z,6.3
2017-04-16T20:48:23.522Z,6.3
2017-04-16T20:49:28.722Z,6.3
2017-04-16T20:50:33.266Z,6.3
2017-04-16T20:51:36.760Z,6.3
2017-04-16T20:52:40.730Z,6.2
2017-04-16T20:53:44.683Z,6.2
2017-04-16T20:54:51.328Z,6.2
2017-04-16T20:55:58.526Z,6.2
2017-04-16T20:57:04.507Z,6.3
2017-04-16T20:58:10.720Z,6.3
2017-04-16T20:59:17.824Z,6.3
2017-04-16T21:00:22.464Z,6.3
2017-04-16T21:01:25.660Z,6.4
2017-04-16T21:02:30.805Z,6.3
2017-04-16T21:03:35.526Z,6.3
2017-04-16T21:04:39.053Z,6.2
2017-04-16T21:05:41.952Z,6.2
2017-04-16T21:06:45.401Z,6.3
2017-04-16T21:07:48.322Z,6.2
2017-04-16T21:08:51.197Z,6.2
2017-04-16T21:09:54.602Z,6.2
2017-04-16T21:10:57.346Z,6.2
2017-04-16T21:12:00.020Z,6.3
2017-04-16T21:13:03.443Z,5.9
2017-04-16T21:14:06.027Z,6.4
2017-04-16T21:15:09.109Z,6.6
2017-04-16T21:16:11.684Z,6.7
2017-04-16T21:17:14.240Z,6.7
2017-04-16T21:18:16.993Z,6.6
2017-04-16T21:19:19.779Z,6.5
2017-04-16T21:20:23.476Z,6.4
2017-04-16T21:21:26.357Z,6.3
2017-04-16T21:22:29.120Z,6.4
2017-04-16T21:23:31.701Z,6.4
2017-04-16T21:24:34.224Z,6.3
2017-04-16T21:25:36.952Z,6.3
2017-04-16T21:26:40.177Z,6.2
2017-04-16T21:27:42.781Z,6.3
2017-04-16T21:28:46.400Z,6.3
2017-04-16T21:29:50.031Z,6.3
2017-04-16T21:30:52.709Z,6.3
2017-04-16T21:31:55.972Z,6.3
2017-04-16T21:32:58.565Z,6.2
2017-04-16T21:34:01.117Z,6.2
2017-04-16T21:35:04.327Z,6.2
2017-04-16T21:36:07.926Z,6.2
2017-04-16T21:37:11.216Z,6.2
2017-04-16T21:38:15.178Z,6.2
2017-04-16T21:39:17.915Z,6.1
2017-04-16T21:40:21.388Z,6.2
2017-04-16T21:41:24.616Z,6.2
2017-04-16T21:42:28.282Z,6.2
2017-04-16T21:43:31.554Z,6.2
2017-04-16T21:44:34.204Z,6.1
2017-04-16T21:45:37.108Z,6.1
2017-04-16T21:46:41.234Z,6.1
2017-04-16T21:47:44.360Z,6.2
2017-04-16T21:48:47.424Z,6.2
2017-04-16T21:49:50.693Z,6.1
2017-04-16T21:50:53.373Z,6.2
2017-04-16T21:51:55.895Z,5.8
2017-04-16T21:52:58.444Z,6.2
2017-04-16T21:54:00.941Z,6.2
2017-04-16T21:55:03.565Z,6.3
2017-04-16T21:56:06.163Z,6.3
2017-04-16T21:57:08.776Z,6.3
2017-04-16T21:58:11.333Z,6.3
2017-04-16T21:59:13.848Z,6.3
2017-04-16T22:00:16.449Z,6.2
2017-04-16T22:01:19.770Z,6.2
2017-04-16T22:02:22.352Z,6.2
2017-04-16T22:03:24.982Z,6.2
2017-04-16T22:04:27.506Z,6.2
2017-04-16T22:05:30.048Z,6.2
2017-04-16T22:06:32.756Z,6.1
2017-04-16T22:07:35.531Z,6.1
2017-04-16T22:08:38.282Z,6
2017-04-16T22:09:40.957Z,6.1
2017-04-16T22:10:43.767Z,6.2
2017-04-16T22:11:46.267Z,6.1
2017-04-16T22:12:49.154Z,6.1
2017-04-16T22:13:51.755Z,6.1
2017-04-16T22:14:54.299Z,6.1
2017-04-16T22:15:56.853Z,6.2
2017-04-16T22:16:59.438Z,6.1
2017-04-16T22:18:02.589Z,6.1
2017-04-16T22:19:05.100Z,6.1
2017-04-16T22:20:07.629Z,6.3
2017-04-16T22:21:10.268Z,6.3
2017-04-16T22:22:12.840Z,6.4
2017-04-16T22:23:15.367Z,6.4
2017-04-16T22:24:17.856Z,6.3
2017-04-16T22:25:20.373Z,6.2
2017-04-16T22:26:22.833Z,6.2
2017-04-16T22:27:25.300Z,5.8
2017-04-16T22:28:27.760Z,6.2
2017-04-16T22:29:30.311Z,6.3
2017-04-16T22:30:32.820Z,6.3
2017-04-16T22:31:35.296Z,6.3
2017-04-16T22:32:37.994Z,6.5
2017-04-16T22:33:40.456Z,6.4
2017-04-16T22:34:42.862Z,6.3
2017-04-16T22:35:45.843Z,6.3
2017-04-16T22:36:48.411Z,6.3
2017-04-16T22:37:50.925Z,6.3
2017-04-16T22:38:53.467Z,6.4
2017-04-16T22:39:55.986Z,6.4
2017-04-16T22:40:58.500Z,6.3
2017-04-16T22:42:01.087Z,6.3
2017-04-16T22:43:03.560Z,6.3
2017-04-16T22:44:06.082Z,6.2
2017-04-16T22:45:09.355Z,6.2
2017-04-16T22:46:11.856Z,6
2017-04-16T22:47:14.311Z,5.9
2017-04-16T22:48:16.782Z,5.6
2017-04-16T22:49:19.316Z,5.6
2017-04-16T22:50:21.756Z,5.5
2017-04-16T22:51:24.187Z,5.7
2017-04-16T22:52:26.681Z,5.7
2017-04-16T22:53:29.120Z,5.5
2017-04-16T22:54:31.556Z,5.4
2017-04-16T22:55:34.089Z,5.4
2017-04-16T22:56:36.517Z,6.1
2017-04-16T22:57:39.000Z,6.3
2017-04-16T22:58:41.446Z,6.3
2017-04-16T22:59:43.933Z,6.3
2017-04-16T23:00:46.324Z,6.2
2017-04-16T23:01:48.755Z,6.2
2017-04-16T23:02:51.173Z,6.2
2017-04-16T23:03:53.662Z,6.2
2017-04-16T23:04:56.185Z,6.3
2017-04-16T23:05:58.902Z,6.3
2017-04-16T23:07:01.356Z,6.3
2017-04-16T23:08:03.776Z,6.1
2017-04-16T23:09:06.239Z,6.2
2017-04-16T23:10:08.728Z,6.1
2017-04-16T23:11:11.195Z,6.1
2017-04-16T23:12:14.589Z,6.1
2017-04-16T23:13:17.004Z,6.2
2017-04-16T23:14:19.423Z,6.2
2017-04-16T23:15:21.850Z,6.2
2017-04-16T23:16:24.293Z,6.3
2017-04-16T23:17:26.702Z,6.3
2017-04-16T23:18:29.215Z,6.3
2017-04-16T23:19:31.679Z,6.3
2017-04-16T23:20:34.108Z,6.3
2017-04-16T23:21:36.552Z,6.3
2017-04-16T23:22:39.021Z,6.2
2017-04-16T23:23:41.488Z,6.3
2017-04-16T23:24:43.901Z,6.3
2017-04-16T23:25:46.388Z,6.2
2017-04-16T23:26:48.881Z,6.2
2017-04-16T23:27:51.334Z,6.2
2017-04-16T23:28:53.789Z,6.2
2017-04-16T23:29:56.252Z,6.2
2017-04-16T23:30:58.672Z,6.2
2017-04-16T23:32:01.077Z,6
2017-04-16T23:33:03.508Z,5.9
2017-04-16T23:34:05.953Z,5.9
2017-04-16T23:35:08.502Z,5.9
2017-04-16T23:36:10.928Z,5.9
2017-04-16T23:37:13.318Z,5.9
2017-04-16T23:38:15.768Z,5.9
2017-04-16T23:39:18.182Z,5.9
2017-04-16T23:40:20.591Z,5.8
2017-04-16T23:41:23.041Z,5.8
2017-04-16T23:42:25.429Z,5.7
2017-04-16T23:43:27.862Z,5.6
2017-04-16T23:44:30.274Z,5.7
2017-04-16T23:45:32.667Z,5.7
2017-04-16T23:46:35.032Z,5.7
2017-04-16T23:47:37.453Z,5.7
2017-04-16T23:48:39.867Z,5.7
2017-04-16T23:49:42.267Z,5.7
2017-04-16T23:50:44.965Z,5.9
2017-04-16T23:51:47.419Z,5.8
2017-04-16T23:52:49.800Z,5.8
2017-04-16T23:53:52.215Z,5.7
2017-04-16T23:54:54.566Z,5.7
2017-04-16T23:55:56.973Z,5.6
2017-04-16T23:56:59.442Z,5.6
2017-04-16T23:58:01.847Z,5.6
2017-04-16T23:59:04.252Z,5.5
